createdAt,value
2018-07-23T00:01:07.187Z,18.00
2018-07-23T00:03:35.066Z,18.00
2018-07-23T00:08:30.550Z,17.90
2018-07-23T00:10:58.424Z,17.90
2018-07-23T00:13:26.341Z,17.90
2018-07-23T00:15:54.292Z,17.90
2018-07-23T00:18:22.470Z,17.90
2018-07-23T00:20:54.118Z,17.90
2018-07-23T00:23:25.408Z,17.90
2018-07-23T00:25:53.220Z,17.90
2018-07-23T00:28:21.159Z,17.90
2018-07-23T00:30:52.441Z,18.00
2018-07-23T00:33:20.236Z,18.00
2018-07-23T00:35:48.062Z,17.90
2018-07-23T00:38:16.002Z,17.90
2018-07-23T00:40:43.713Z,17.90
2018-07-23T00:45:40.195Z,17.80
2018-07-23T00:48:07.952Z,17.80
2018-07-23T00:50:35.985Z,17.80
2018-07-23T00:53:03.763Z,17.80
2018-07-23T00:55:31.531Z,17.80
2018-07-23T00:57:59.378Z,17.70
2018-07-23T01:00:27.358Z,17.70
2018-07-23T01:02:56.606Z,17.70
2018-07-23T01:05:24.831Z,17.70
2018-07-23T01:07:52.710Z,17.70
2018-07-23T01:10:20.620Z,17.70
2018-07-23T01:12:48.601Z,17.70
2018-07-23T01:15:16.461Z,17.70
2018-07-23T01:17:44.249Z,17.80
2018-07-23T01:20:12.112Z,17.80
2018-07-23T01:22:40.065Z,17.80
2018-07-23T01:25:07.938Z,17.80
2018-07-23T01:27:36.150Z,17.70
2018-07-23T01:30:04.487Z,17.70
2018-07-23T01:32:32.380Z,17.70
2018-07-23T01:35:00.274Z,17.60
2018-07-23T01:37:28.028Z,17.60
2018-07-23T01:39:55.977Z,17.60
2018-07-23T01:42:24.133Z,17.70
2018-07-23T01:44:51.970Z,17.60
2018-07-23T01:47:19.937Z,17.60
2018-07-23T01:49:53.652Z,17.50
2018-07-23T01:52:21.576Z,17.50
2018-07-23T01:54:49.450Z,17.50
2018-07-23T01:57:17.353Z,17.40
2018-07-23T01:59:45.214Z,17.40
2018-07-23T02:02:13.305Z,17.30
2018-07-23T02:04:41.311Z,17.30
2018-07-23T02:07:09.208Z,17.20
2018-07-23T02:09:37.032Z,17.20
2018-07-23T02:12:05.391Z,17.10
2018-07-23T02:14:34.592Z,17.10
2018-07-23T02:17:02.274Z,17.00
2018-07-23T02:19:30.534Z,17.00
2018-07-23T02:21:58.581Z,17.00
2018-07-23T02:24:26.421Z,17.00
2018-07-23T02:26:54.378Z,16.90
2018-07-23T02:29:22.546Z,16.90
2018-07-23T02:31:50.477Z,16.90
2018-07-23T02:34:18.357Z,16.80
2018-07-23T02:36:47.112Z,16.80
2018-07-23T02:39:14.925Z,16.70
2018-07-23T02:41:42.708Z,16.70
2018-07-23T02:44:10.506Z,16.70
2018-07-23T02:46:38.251Z,16.70
2018-07-23T02:49:06.021Z,16.60
2018-07-23T02:51:33.854Z,16.60
2018-07-23T02:54:01.775Z,16.60
2018-07-23T02:56:29.649Z,16.60
2018-07-23T02:58:57.544Z,16.70
2018-07-23T03:01:25.478Z,16.70
2018-07-23T03:03:55.724Z,16.70
2018-07-23T03:06:38.023Z,16.60
2018-07-23T03:09:06.739Z,16.60
2018-07-23T03:11:34.930Z,16.70
2018-07-23T03:14:02.964Z,16.70
2018-07-23T03:16:30.869Z,16.70
2018-07-23T03:18:58.827Z,16.70
2018-07-23T03:21:26.736Z,16.70
2018-07-23T03:23:55.162Z,16.70
2018-07-23T03:26:22.898Z,16.70
2018-07-23T03:28:50.903Z,16.70
2018-07-23T03:31:18.684Z,16.70
2018-07-23T03:33:46.758Z,16.80
2018-07-23T03:36:14.730Z,16.90
2018-07-23T03:38:42.780Z,17.00
2018-07-23T03:41:10.602Z,17.10
2018-07-23T03:43:38.476Z,17.00
2018-07-23T03:46:06.477Z,16.90
2018-07-23T03:48:34.314Z,16.90
2018-07-23T03:51:02.150Z,16.80
2018-07-23T03:53:30.126Z,16.80
2018-07-23T03:55:58.105Z,16.70
2018-07-23T03:58:26.117Z,16.70
2018-07-23T04:00:54.988Z,16.70
2018-07-23T04:03:23.417Z,16.70
2018-07-23T04:05:51.291Z,16.70
2018-07-23T04:08:19.155Z,16.80
2018-07-23T04:10:47.075Z,16.90
2018-07-23T04:13:14.935Z,17.00
2018-07-23T04:15:42.877Z,17.00
2018-07-23T04:18:10.805Z,17.00
2018-07-23T04:20:38.749Z,16.90
2018-07-23T04:23:06.836Z,17.00
2018-07-23T04:25:34.780Z,17.00
2018-07-23T04:28:02.753Z,17.10
2018-07-23T04:30:30.645Z,17.20
2018-07-23T04:32:58.416Z,17.30
2018-07-23T04:35:26.417Z,17.30
2018-07-23T04:37:54.393Z,17.30
2018-07-23T04:40:22.370Z,17.30
2018-07-23T04:42:50.235Z,17.40
2018-07-23T04:45:17.975Z,17.40
2018-07-23T04:47:45.821Z,17.40
2018-07-23T04:50:13.655Z,17.50
2018-07-23T04:52:41.584Z,17.50
2018-07-23T04:55:11.551Z,17.50
2018-07-23T04:57:39.243Z,17.60
2018-07-23T05:00:07.118Z,17.60
2018-07-23T05:05:02.928Z,17.70
2018-07-23T05:07:30.961Z,17.80
2018-07-23T05:09:58.840Z,18.00
2018-07-23T05:12:26.785Z,18.10
2018-07-23T05:14:54.747Z,18.10
2018-07-23T05:17:22.556Z,18.20
2018-07-23T05:19:50.357Z,18.30
2018-07-23T05:22:28.916Z,18.40
2018-07-23T05:24:56.855Z,18.60
2018-07-23T05:27:24.860Z,18.70
2018-07-23T05:29:52.748Z,18.80
2018-07-23T05:32:21.215Z,19.10
2018-07-23T05:34:49.169Z,19.30
2018-07-23T05:37:16.912Z,19.30
2018-07-23T05:39:44.979Z,19.30
2018-07-23T05:42:12.800Z,19.20
2018-07-23T05:44:40.634Z,19.40
2018-07-23T05:47:08.604Z,19.30
2018-07-23T05:49:36.523Z,19.30
2018-07-23T05:52:04.490Z,19.30
2018-07-23T05:54:32.686Z,19.40
2018-07-23T05:57:00.957Z,19.40
2018-07-23T05:59:28.810Z,19.50
2018-07-23T06:01:56.967Z,19.40
2018-07-23T06:04:24.932Z,19.40
2018-07-23T06:06:52.872Z,19.40
2018-07-23T06:09:20.725Z,19.40
2018-07-23T06:11:48.772Z,19.50
2018-07-23T06:14:16.813Z,19.60
2018-07-23T06:16:45.711Z,19.90
2018-07-23T06:19:13.577Z,20.20
2018-07-23T06:21:41.551Z,20.50
2018-07-23T06:24:09.445Z,20.60
2018-07-23T06:26:37.579Z,20.80
2018-07-23T06:29:05.676Z,21.00
2018-07-23T06:31:33.662Z,21.50
2018-07-23T06:34:01.429Z,22.00
2018-07-23T06:36:29.269Z,22.80
2018-07-23T06:38:57.290Z,23.80
2018-07-23T06:41:25.434Z,24.40
2018-07-23T06:43:53.464Z,24.50
2018-07-23T06:46:21.343Z,24.40
2018-07-23T06:48:49.366Z,24.40
2018-07-23T06:51:17.296Z,24.60
2018-07-23T06:53:45.282Z,25.00
2018-07-23T06:56:13.290Z,25.60
2018-07-23T06:58:41.233Z,25.90
2018-07-23T07:01:09.185Z,26.30
2018-07-23T07:03:37.140Z,26.50
2018-07-23T07:06:05.106Z,26.80
2018-07-23T07:08:33.047Z,26.70
2018-07-23T07:11:01.100Z,26.60
2018-07-23T07:13:49.369Z,26.00
2018-07-23T07:16:17.253Z,25.70
2018-07-23T07:18:45.110Z,25.50
2018-07-23T07:21:12.954Z,25.40
2018-07-23T07:23:40.855Z,25.10
2018-07-23T07:26:09.071Z,24.90
2018-07-23T07:28:36.859Z,24.70
2018-07-23T07:31:06.842Z,24.60
2018-07-23T07:33:34.812Z,24.50
2018-07-23T07:36:02.597Z,24.50
2018-07-23T07:38:30.615Z,24.40
2018-07-23T07:40:58.493Z,24.20
2018-07-23T07:43:26.368Z,24.10
2018-07-23T07:45:54.310Z,24.10
2018-07-23T07:48:24.432Z,24.30
2018-07-23T07:50:52.423Z,24.40
2018-07-23T07:53:20.469Z,24.90
2018-07-23T07:55:48.261Z,25.50
2018-07-23T08:00:44.028Z,26.20
2018-07-23T08:03:13.106Z,26.60
2018-07-23T08:05:41.134Z,26.90
2018-07-23T08:08:09.094Z,26.80
2018-07-23T08:10:37.195Z,27.00
2018-07-23T08:13:05.082Z,27.20
2018-07-23T08:15:32.950Z,27.30
2018-07-23T08:18:00.875Z,27.40
2018-07-23T08:20:28.968Z,27.50
2018-07-23T08:22:57.063Z,27.60
2018-07-23T08:25:27.027Z,27.40
2018-07-23T08:27:55.258Z,27.50
2018-07-23T08:30:23.191Z,27.70
2018-07-23T08:32:51.679Z,27.90
2018-07-23T08:35:19.565Z,27.90
2018-07-23T08:42:46.694Z,27.80
2018-07-23T08:45:14.495Z,27.90
2018-07-23T08:47:42.365Z,28.30
2018-07-23T08:50:10.287Z,28.50
2018-07-23T08:52:38.406Z,28.30
2018-07-23T08:55:06.360Z,28.30
2018-07-23T08:57:34.304Z,28.50
2018-07-23T09:00:02.174Z,28.70
2018-07-23T09:02:30.027Z,28.70
2018-07-23T09:04:57.849Z,28.60
2018-07-23T09:07:25.860Z,28.60
2018-07-23T09:09:53.774Z,28.60
2018-07-23T09:14:49.530Z,29.00
2018-07-23T09:17:17.497Z,29.20
2018-07-23T09:19:45.251Z,29.30
2018-07-23T09:22:13.185Z,29.30
2018-07-23T09:24:41.434Z,29.30
2018-07-23T09:27:09.450Z,29.50
2018-07-23T09:29:37.484Z,29.60
2018-07-23T09:32:05.404Z,29.60
2018-07-23T09:34:33.421Z,29.60
2018-07-23T09:37:01.505Z,29.50
2018-07-23T09:39:29.525Z,29.50
2018-07-23T09:41:58.681Z,29.70
2018-07-23T09:44:26.663Z,29.60
2018-07-23T09:46:54.626Z,29.60
2018-07-23T09:49:22.806Z,29.50
2018-07-23T09:51:50.668Z,29.50
2018-07-23T09:54:18.653Z,29.40
2018-07-23T09:56:46.442Z,29.00
2018-07-23T09:59:14.300Z,28.90
2018-07-23T10:01:42.286Z,28.50
2018-07-23T10:04:10.137Z,28.20
2018-07-23T10:06:38.093Z,27.80
2018-07-23T10:09:08.209Z,27.50
2018-07-23T10:11:36.114Z,27.20
2018-07-23T10:14:04.248Z,27.00
2018-07-23T10:16:32.408Z,27.00
2018-07-23T10:19:00.427Z,27.30
2018-07-23T10:21:28.384Z,27.10
2018-07-23T10:23:56.408Z,27.10
2018-07-23T10:26:24.438Z,27.20
2018-07-23T10:28:52.513Z,27.10
2018-07-23T10:31:20.466Z,27.10
2018-07-23T10:33:56.454Z,27.30
2018-07-23T10:36:24.398Z,27.50
2018-07-23T10:38:52.330Z,27.70
2018-07-23T10:41:20.310Z,28.20
2018-07-23T10:43:48.234Z,28.70
2018-07-23T10:46:16.143Z,29.00
2018-07-23T10:48:44.066Z,29.40
2018-07-23T10:51:11.936Z,29.50
2018-07-23T10:53:39.963Z,29.40
2018-07-23T10:56:21.868Z,29.40
2018-07-23T10:58:49.773Z,28.90
2018-07-23T11:01:17.610Z,28.70
2018-07-23T11:03:52.683Z,28.40
2018-07-23T11:06:20.916Z,28.50
2018-07-23T11:08:49.001Z,28.40
2018-07-23T11:11:16.937Z,28.40
2018-07-23T11:13:44.837Z,28.20
2018-07-23T11:18:41.493Z,27.50
2018-07-23T11:21:13.525Z,27.70
2018-07-23T11:23:41.498Z,27.90
2018-07-23T11:26:09.551Z,28.10
2018-07-23T11:28:37.557Z,28.30
2018-07-23T11:31:05.897Z,28.30
2018-07-23T11:36:26.994Z,28.80
2018-07-23T11:38:56.046Z,29.00
2018-07-23T11:41:24.056Z,29.00
2018-07-23T11:43:51.915Z,28.80
2018-07-23T11:46:24.983Z,28.50
2018-07-23T11:48:47.587Z,28.30
2018-07-23T11:51:15.610Z,28.30
2018-07-23T11:53:43.678Z,28.30
2018-07-23T11:56:11.449Z,28.20
2018-07-23T11:58:51.229Z,28.10
2018-07-23T12:01:19.085Z,27.80
2018-07-23T12:03:47.037Z,27.80
2018-07-23T12:06:14.883Z,28.20
2018-07-23T12:08:42.835Z,28.40
2018-07-23T12:11:10.649Z,28.30
2018-07-23T12:13:38.436Z,28.70
2018-07-23T12:16:06.526Z,28.90
2018-07-23T12:18:37.965Z,29.10
2018-07-23T12:21:06.201Z,29.30
2018-07-23T12:23:34.032Z,29.50
2018-07-23T12:26:02.156Z,29.60
2018-07-23T12:28:29.866Z,29.80
2018-07-23T12:30:57.683Z,30.10
2018-07-23T12:33:25.538Z,30.40
2018-07-23T12:35:53.542Z,30.60
2018-07-23T12:38:21.681Z,30.40
2018-07-23T12:40:49.552Z,30.00
2018-07-23T12:43:17.436Z,29.60
2018-07-23T12:45:45.323Z,29.30
2018-07-23T12:48:13.105Z,29.00
2018-07-23T12:50:41.021Z,28.80
2018-07-23T12:53:21.149Z,28.80
2018-07-23T12:58:16.774Z,28.90
2018-07-23T13:00:44.681Z,29.20
2018-07-23T13:03:12.637Z,29.40
2018-07-23T13:05:40.532Z,29.70
2018-07-23T13:08:08.369Z,29.90
2018-07-23T13:10:36.175Z,29.80
2018-07-23T13:13:16.057Z,29.70
2018-07-23T13:15:43.930Z,29.90
2018-07-23T13:18:16.036Z,30.00
2018-07-23T13:20:43.994Z,29.70
2018-07-23T13:23:12.055Z,29.30
2018-07-23T13:25:39.999Z,29.10
2018-07-23T13:28:08.130Z,28.90
2018-07-23T13:30:36.105Z,28.70
2018-07-23T13:33:04.195Z,28.70
2018-07-23T13:35:32.254Z,28.90
2018-07-23T13:38:00.376Z,29.10
2018-07-23T13:40:28.294Z,29.00
2018-07-23T13:42:56.364Z,29.30
2018-07-23T13:45:24.260Z,29.50
2018-07-23T13:47:52.288Z,29.50
2018-07-23T13:50:20.277Z,29.60
2018-07-23T13:52:48.207Z,29.70
2018-07-23T13:55:27.415Z,29.70
2018-07-23T13:57:55.410Z,29.70
2018-07-23T14:00:23.503Z,29.70
2018-07-23T14:02:51.831Z,29.60
2018-07-23T14:05:19.817Z,29.60
2018-07-23T14:07:47.930Z,29.50
2018-07-23T14:10:15.847Z,29.40
2018-07-23T14:12:43.931Z,29.20
2018-07-23T14:15:11.972Z,29.10
2018-07-23T14:17:39.887Z,29.00
2018-07-23T14:20:07.925Z,28.80
2018-07-23T14:22:35.883Z,28.70
2018-07-23T14:25:04.121Z,28.70
2018-07-23T14:27:32.069Z,28.60
2018-07-23T14:30:00.396Z,28.60
2018-07-23T14:32:32.944Z,28.40
2018-07-23T14:35:00.965Z,28.20
2018-07-23T14:37:28.906Z,27.90
2018-07-23T14:39:56.869Z,27.70
2018-07-23T14:42:25.110Z,27.50
2018-07-23T14:44:53.021Z,27.60
2018-07-23T14:47:21.099Z,27.90
2018-07-23T14:49:54.319Z,28.20
2018-07-23T14:52:22.457Z,28.50
2018-07-23T14:54:50.303Z,28.80
2018-07-23T14:57:18.299Z,29.00
2018-07-23T14:59:46.355Z,29.30
2018-07-23T15:02:14.286Z,29.40
2018-07-23T15:04:42.499Z,29.40
2018-07-23T15:07:10.643Z,29.40
2018-07-23T15:09:39.107Z,29.50
2018-07-23T15:12:07.549Z,29.70
2018-07-23T15:14:36.751Z,30.00
2018-07-23T15:17:05.619Z,30.10
2018-07-23T15:19:33.868Z,30.40
2018-07-23T15:22:01.831Z,30.30
2018-07-23T15:24:29.772Z,30.20
2018-07-23T15:26:57.915Z,30.20
2018-07-23T15:29:25.924Z,30.30
2018-07-23T15:31:59.545Z,30.40
2018-07-23T15:34:27.524Z,30.60
2018-07-23T15:36:55.482Z,30.60
2018-07-23T15:39:23.415Z,30.50
2018-07-23T15:41:51.477Z,30.30
2018-07-23T15:44:19.537Z,30.00
2018-07-23T15:46:47.282Z,30.10
2018-07-23T15:49:15.311Z,29.90
2018-07-23T15:51:43.285Z,29.80
2018-07-23T15:54:11.298Z,29.80
2018-07-23T15:56:39.296Z,29.70
2018-07-23T15:59:07.366Z,29.70
2018-07-23T16:01:35.156Z,29.60
2018-07-23T16:04:03.370Z,29.40
2018-07-23T16:06:31.452Z,29.10
2018-07-23T16:08:59.317Z,29.00
2018-07-23T16:11:27.297Z,29.00
2018-07-23T16:13:55.768Z,29.20
2018-07-23T16:16:23.780Z,29.30
2018-07-23T16:18:51.609Z,29.40
2018-07-23T16:21:19.614Z,29.40
2018-07-23T16:23:47.626Z,29.40
2018-07-23T16:26:15.727Z,29.30
2018-07-23T16:28:43.735Z,29.10
2018-07-23T16:31:12.105Z,29.00
2018-07-23T16:33:40.092Z,28.90
2018-07-23T16:36:07.996Z,28.80
2018-07-23T16:38:36.033Z,28.80
2018-07-23T16:41:04.166Z,28.60
2018-07-23T16:43:32.134Z,28.50
2018-07-23T16:46:00.032Z,28.50
2018-07-23T16:48:28.037Z,28.20
2018-07-23T16:50:55.989Z,28.20
2018-07-23T16:53:24.077Z,28.10
2018-07-23T16:55:51.922Z,28.20
2018-07-23T16:58:19.831Z,28.20
2018-07-23T17:00:47.837Z,28.10
2018-07-23T17:03:15.756Z,28.00
2018-07-23T17:05:45.692Z,28.00
2018-07-23T17:08:15.142Z,27.80
2018-07-23T17:10:43.169Z,27.80
2018-07-23T17:13:12.058Z,27.80
2018-07-23T17:15:39.956Z,27.80
2018-07-23T17:18:08.190Z,27.80
2018-07-23T17:20:36.014Z,27.60
2018-07-23T17:23:04.459Z,27.50
2018-07-23T17:25:32.482Z,27.50
2018-07-23T17:28:00.686Z,27.40
2018-07-23T17:30:28.659Z,27.30
2018-07-23T17:32:58.892Z,27.20
2018-07-23T17:35:26.856Z,27.20
2018-07-23T17:37:54.790Z,27.10
2018-07-23T17:40:22.804Z,27.00
2018-07-23T17:42:50.633Z,27.00
2018-07-23T17:45:18.847Z,26.90
2018-07-23T17:47:46.638Z,26.70
2018-07-23T17:50:14.569Z,26.50
2018-07-23T17:52:42.376Z,26.40
2018-07-23T17:55:10.642Z,26.30
2018-07-23T17:57:38.519Z,26.20
2018-07-23T18:00:06.489Z,26.10
2018-07-23T18:02:34.538Z,26.00
2018-07-23T18:05:02.571Z,25.90
2018-07-23T18:07:30.491Z,25.80
2018-07-23T18:09:58.582Z,25.80
2018-07-23T18:12:26.426Z,25.80
2018-07-23T18:14:54.521Z,25.70
2018-07-23T18:19:50.350Z,25.60
2018-07-23T18:22:19.278Z,25.60
2018-07-23T18:24:47.108Z,25.50
2018-07-23T18:27:15.007Z,25.50
2018-07-23T18:29:42.870Z,25.40
2018-07-23T18:32:10.876Z,25.40
2018-07-23T18:34:38.781Z,25.30
2018-07-23T18:37:06.640Z,25.20
2018-07-23T18:39:34.534Z,25.20
2018-07-23T18:42:02.726Z,25.10
2018-07-23T18:44:30.641Z,25.10
2018-07-23T18:47:01.759Z,25.00
2018-07-23T18:49:43.233Z,24.90
2018-07-23T18:52:11.801Z,24.80
2018-07-23T18:54:40.371Z,24.70
2018-07-23T18:57:09.133Z,24.60
2018-07-23T18:59:37.222Z,24.60
2018-07-23T19:02:06.586Z,24.50
2018-07-23T19:04:34.675Z,24.40
2018-07-23T19:07:02.638Z,24.30
2018-07-23T19:09:30.957Z,24.30
2018-07-23T19:12:02.033Z,24.20
2018-07-23T19:14:30.111Z,24.10
2018-07-23T19:16:59.168Z,24.00
2018-07-23T19:19:27.287Z,24.00
2018-07-23T19:21:55.301Z,23.90
2018-07-23T19:24:26.907Z,23.80
2018-07-23T19:29:22.916Z,23.70
2018-07-23T19:32:09.185Z,23.60
2018-07-23T19:34:37.143Z,23.50
2018-07-23T19:37:05.346Z,23.50
2018-07-23T19:39:33.378Z,23.40
2018-07-23T19:42:01.377Z,23.30
2018-07-23T19:44:29.344Z,23.20
2018-07-23T19:46:57.422Z,23.10
2018-07-23T19:49:25.533Z,23.00
2018-07-23T19:51:53.465Z,22.90
2018-07-23T19:54:21.443Z,22.80
2018-07-23T19:56:49.321Z,22.70
2018-07-23T20:01:53.172Z,22.60
2018-07-23T20:04:22.021Z,22.50
2018-07-23T20:06:49.997Z,22.40
2018-07-23T20:09:19.637Z,22.30
2018-07-23T20:11:47.676Z,22.20
2018-07-23T20:14:15.609Z,22.10
2018-07-23T20:16:43.723Z,22.00
2018-07-23T20:19:11.569Z,21.90
2018-07-23T20:21:39.574Z,21.90
2018-07-23T20:24:07.642Z,21.80
2018-07-23T20:26:35.465Z,21.80
2018-07-23T20:29:03.397Z,21.70
2018-07-23T20:31:31.443Z,21.60
2018-07-23T20:33:59.300Z,21.50
2018-07-23T20:36:31.695Z,21.40
2018-07-23T20:39:00.450Z,21.30
2018-07-23T20:41:28.531Z,21.20
2018-07-23T20:43:56.715Z,21.10
2018-07-23T20:46:24.642Z,21.00
2018-07-23T20:48:53.069Z,20.90
2018-07-23T20:51:21.012Z,20.90
2018-07-23T20:53:48.900Z,20.80
2018-07-23T20:56:39.479Z,20.80
2018-07-23T20:59:07.263Z,20.70
2018-07-23T21:01:35.285Z,20.60
2018-07-23T21:04:03.347Z,20.60
2018-07-23T21:06:31.287Z,20.50
2018-07-23T21:09:00.192Z,20.50
2018-07-23T21:11:28.140Z,20.50
2018-07-23T21:13:58.304Z,20.40
2018-07-23T21:16:26.238Z,20.30
2018-07-23T21:18:56.345Z,20.30
2018-07-23T21:21:24.293Z,20.20
2018-07-23T21:23:52.134Z,20.10
2018-07-23T21:26:19.954Z,20.10
2018-07-23T21:28:47.771Z,20.00
2018-07-23T21:31:15.634Z,19.90
2018-07-23T21:33:43.515Z,19.90
2018-07-23T21:36:11.391Z,19.90
2018-07-23T21:38:39.226Z,19.80
2018-07-23T21:41:12.001Z,19.80
2018-07-23T21:43:39.770Z,19.80
2018-07-23T21:46:07.784Z,19.80
2018-07-23T21:48:36.616Z,19.80
2018-07-23T21:51:04.466Z,19.80
2018-07-23T21:53:32.337Z,19.80
2018-07-23T21:56:06.884Z,19.70
2018-07-23T21:58:35.038Z,19.70
2018-07-23T22:03:31.258Z,19.50
2018-07-23T22:05:59.458Z,19.50
2018-07-23T22:08:27.231Z,19.50
2018-07-23T22:10:56.180Z,19.40
2018-07-23T22:13:24.061Z,19.40
2018-07-23T22:15:52.040Z,19.30
2018-07-23T22:18:19.929Z,19.30
2018-07-23T22:20:48.011Z,19.30
2018-07-23T22:23:15.785Z,19.10
2018-07-23T22:25:43.680Z,19.00
2018-07-23T22:28:11.594Z,19.00
2018-07-23T22:30:39.430Z,18.90
2018-07-23T22:33:07.405Z,18.80
2018-07-23T22:35:35.300Z,18.80
2018-07-23T22:38:03.383Z,18.70
2018-07-23T22:40:31.224Z,18.70
2018-07-23T22:42:59.223Z,18.70
2018-07-23T22:45:27.137Z,18.70
2018-07-23T22:47:55.050Z,18.60
2018-07-23T22:50:22.961Z,18.60
2018-07-23T22:52:50.870Z,18.60
2018-07-23T22:55:18.720Z,18.60
2018-07-23T22:57:46.920Z,18.60
2018-07-23T23:00:14.676Z,18.60
2018-07-23T23:02:42.899Z,18.60
2018-07-23T23:05:11.063Z,18.50
2018-07-23T23:07:38.884Z,18.50
2018-07-23T23:10:12.937Z,18.50
2018-07-23T23:12:40.789Z,18.40
2018-07-23T23:15:09.363Z,18.40
2018-07-23T23:17:37.244Z,18.20
2018-07-23T23:20:05.699Z,18.20
2018-07-23T23:22:34.611Z,18.10
2018-07-23T23:25:02.558Z,18.10
2018-07-23T23:27:30.554Z,18.00
2018-07-23T23:29:59.650Z,17.90
2018-07-23T23:32:27.844Z,17.90
2018-07-23T23:34:55.975Z,17.80
2018-07-23T23:37:23.870Z,17.80
2018-07-23T23:39:52.388Z,17.70
2018-07-23T23:42:20.335Z,17.70
2018-07-23T23:44:48.295Z,17.60
2018-07-23T23:47:16.141Z,17.60
2018-07-23T23:49:56.821Z,17.60
2018-07-23T23:52:24.765Z,17.60
2018-07-23T23:54:52.805Z,17.60
2018-07-23T23:57:20.742Z,17.60
2018-07-23T23:59:48.584Z,17.60
